Map

Track Data

SID SEASON NUMBER BASIN SUBBASIN NAME ISO_TIME NATURE LAT LON WMO_WIND WMO_PRES WMO_AGENCY TRACK_TYPE DIST2LAND LANDFALL IFLAG USA_AGENCY USA_ATCF_ID USA_LAT USA_LON USA_RECORD USA_STATUS USA_WIND USA_PRES USA_SSHS USA_R34_NE USA_R34_SE USA_R34_SW USA_R34_NW USA_R50_NE USA_R50_SE USA_R50_SW USA_R50_NW USA_R64_NE USA_R64_SE USA_R64_SW USA_R64_NW USA_POCI USA_ROCI USA_RMW USA_EYE TOKYO_LAT TOKYO_LON TOKYO_GRADE TOKYO_WIND TOKYO_PRES TOKYO_R50_DIR TOKYO_R50_LONG TOKYO_R50_SHORT TOKYO_R30_DIR TOKYO_R30_LONG TOKYO_R30_SHORT TOKYO_LAND CMA_LAT CMA_LON CMA_CAT CMA_WIND CMA_PRES HKO_LAT HKO_LON HKO_CAT HKO_WIND HKO_PRES NEWDELHI_LAT NEWDELHI_LON NEWDELHI_GRADE NEWDELHI_WIND NEWDELHI_PRES NEWDELHI_CI NEWDELHI_DP NEWDELHI_POCI REUNION_LAT REUNION_LON REUNION_TYPE REUNION_WIND REUNION_PRES REUNION_TNUM REUNION_CI REUNION_RMW REUNION_R34_NE REUNION_R34_SE REUNION_R34_SW REUNION_R34_NW REUNION_R50_NE REUNION_R50_SE REUNION_R50_SW REUNION_R50_NW REUNION_R64_NE REUNION_R64_SE REUNION_R64_SW REUNION_R64_NW BOM_LAT BOM_LON BOM_TYPE BOM_WIND BOM_PRES BOM_TNUM BOM_CI BOM_RMW BOM_R34_NE BOM_R34_SE BOM_R34_SW BOM_R34_NW BOM_R50_NE BOM_R50_SE BOM_R50_SW BOM_R50_NW BOM_R64_NE BOM_R64_SE BOM_R64_SW BOM_R64_NW BOM_ROCI BOM_POCI BOM_EYE BOM_POS_METHOD BOM_PRES_METHOD NADI_LAT NADI_LON NADI_CAT NADI_WIND NADI_PRES WELLINGTON_LAT WELLINGTON_LON WELLINGTON_WIND WELLINGTON_PRES DS824_LAT DS824_LON DS824_STAGE DS824_WIND DS824_PRES TD9636_LAT TD9636_LON TD9636_STAGE TD9636_WIND TD9636_PRES TD9635_LAT TD9635_LON TD9635_WIND TD9635_PRES TD9635_ROCI NEUMANN_LAT NEUMANN_LON NEUMANN_CLASS NEUMANN_WIND NEUMANN_PRES MLC_LAT MLC_LON MLC_CLASS MLC_WIND MLC_PRES USA_GUST BOM_GUST BOM_GUST_PER REUNION_GUST REUNION_GUST_PER USA_SEAHGT USA_SEARAD_NE USA_SEARAD_SE USA_SEARAD_SW USA_SEARAD_NW STORM_SPEED STORM_DIR
1972251N15097 1972 92 NI BB NOT_NAMED 1972-09-07 03:00:00 NR 15.2000 96.9000 main 86 85 __________O___ -1 15.2000 96.9000 1 17 270
1972251N15097 1972 92 NI BB NOT_NAMED 1972-09-07 06:00:00 TS 15.2056 96.0408 main 77 55 O________OP___ jtwc_io IO091972 15.2000 96.0000 -1 15.2000 96.0000 TC 15.2112 96.0816 1 16 270
1972251N15097 1972 92 NI BB NOT_NAMED 1972-09-07 09:00:00 TS 15.2074 95.2744 main 55 55 P________PP___ IO091972 15.2007 95.2475 -1 15.2007 95.2475 TC 15.2164 95.3103 1 14 270
1972251N15097 1972 92 NI BB NOT_NAMED 1972-09-07 12:00:00 TS 15.2053 94.6136 main 68 67 O________OP___ jtwc_io IO091972 15.2000 94.6000 -1 15.2000 94.6000 TC 15.2133 94.6339 1 11 270
1972251N15097 1972 92 NI BB NOT_NAMED 1972-09-07 15:00:00 TS 15.1998 94.1217 main 74 74 P________PO___ IO091972 15.1997 94.1325 -1 15.1997 94.1325 TC 15.2000 94.1000 1 8 269
1972251N15097 1972 92 NI BB NOT_NAMED 1972-09-07 18:00:00 TS 15.1926 93.7778 main 92 92 O________OP___ jtwc_io IO091972 15.2000 93.8000 -1 15.2000 93.8000 TC 15.1778 93.7335 1 6 269
1972251N15097 1972 92 NI BB NOT_NAMED 1972-09-07 21:00:00 TS 15.1865 93.5332 main 116 116 P________PP___ IO091972 15.1997 93.5650 -1 15.1997 93.5650 TC 15.1600 93.4695 1 5 269
1972251N15097 1972 92 NI BB NOT_NAMED 1972-09-08 00:00:00 TS 15.1874 93.2736 main 131 131 O________OP___ jtwc_io IO091972 15.2000 93.3000 -1 15.2000 93.3000 TC 15.1623 93.2208 1 6 270
1972251N15097 1972 92 NI BB NOT_NAMED 1972-09-08 03:00:00 TS 15.1850 92.8682 main 165 165 P________PO___ IO091972 15.1775 92.8523 -1 15.1775 92.8523 TC 15.2000 92.9000 2 9 272
1972251N15097 1972 92 NI BB NOT_NAMED 1972-09-08 06:00:00 TS 15.2245 92.3247 main 222 222 O________OP___ jtwc_io IO091972 15.2000 92.3000 -1 15.2000 92.3000 TC 15.2735 92.3741 2 11 278
1972251N15097 1972 92 NI BB NOT_NAMED 1972-09-08 09:00:00 TS 15.3411 91.7275 main 279 276 P________PP___ IO091972 15.3200 91.7076 -1 15.3200 91.7076 TC 15.3834 91.7674 2 12 284
1972251N15097 1972 92 NI BB NOT_NAMED 1972-09-08 12:00:00 TS 15.5088 91.1090 main 336 336 O________OP___ jtwc_io IO091972 15.5000 91.1000 XX 55 -5 15.5000 91.1000 TC 55 15.5265 91.1270 2 12 287
1972251N15097 1972 92 NI BB NOT_NAMED 1972-09-08 15:00:00 TS 15.6899 90.5283 main 397 397 P________PO___ IO091972 15.6848 90.5424 XX 55 -5 15.6848 90.5424 TC 55 15.7000 90.5000 2 12 290
1972251N15097 1972 92 NI BB NOT_NAMED 1972-09-08 18:00:00 TS 15.8972 89.9804 main 449 449 O________OP___ jtwc_io IO091972 15.9000 90.0000 XX 55 -5 15.9000 90.0000 TC 55 15.8917 89.9413 2 11 293
1972251N15097 1972 92 NI BB NOT_NAMED 1972-09-08 21:00:00 TS 16.1373 89.4300 main 513 481 P________PP___ IO091972 16.1499 89.4425 XX 57 -5 16.1499 89.4425 TC 57 16.1120 89.4050 2 12 295
1972251N15097 1972 92 NI BB NOT_NAMED 1972-09-09 00:00:00 TS 16.3837 88.8971 main 481 435 O________OP___ jtwc_io IO091972 16.4000 88.9000 XX 60 -5 16.4000 88.9000 TC 60 16.3512 88.8912 2 11 295
1972251N15097 1972 92 NI BB NOT_NAMED 1972-09-09 03:00:00 TS 16.5949 88.3898 main 435 391 P________PO___ IO091972 16.5924 88.3847 XX 65 -5 16.5924 88.3847 TC 65 16.6000 88.4000 4 10 294
1972251N15097 1972 92 NI BB NOT_NAMED 1972-09-09 06:00:00 TS 16.8155 87.9027 main 391 344 O________OP___ jtwc_io IO091972 16.8000 87.9000 XX 70 -5 16.8000 87.9000 TC 70 16.8466 87.9080 4 10 299
1972251N15097 1972 92 NI BB NOT_NAMED 1972-09-09 09:00:00 TS 17.0998 87.4367 main 341 295 P________PP___ IO091972 17.0999 87.4351 XX 75 -5 17.0999 87.4351 TC 75 17.0997 87.4399 4 10 303
1972251N15097 1972 92 NI BB NOT_NAMED 1972-09-09 12:00:00 TS 17.3843 87.0006 main 295 250 O________OP___ jtwc_io IO091972 17.4000 87.0000 XX 80 -5 17.4000 87.0000 TC 80 17.3530 87.0018 4 10 302
1972251N15097 1972 92 NI BB NOT_NAMED 1972-09-09 15:00:00 TS 17.6050 86.5849 main 250 202 P________PO___ IO091972 17.6075 86.5773 XX 80 -5 17.6075 86.5773 TC 80 17.6000 86.6000 4 9 300
1972251N15097 1972 92 NI BB NOT_NAMED 1972-09-09 18:00:00 TS 17.8078 86.2182 main 202 163 O________OP___ jtwc_io IO091972 17.8000 86.2000 XX 80 -5 17.8000 86.2000 TC 80 17.8234 86.2545 4 8 304
1972251N15097 1972 92 NI BB NOT_NAMED 1972-09-09 21:00:00 TS 18.0421 85.9087 main 163 119 P________PP___ IO091972 18.0423 85.8924 XX 77 -5 18.0423 85.8924 TC 77 18.0415 85.9414 4 8 310
1972251N15097 1972 92 NI BB NOT_NAMED 1972-09-10 00:00:00 TS 18.2880 85.6109 main 119 81 O________OP___ jtwc_io IO091972 18.3000 85.6000 XX 75 -5 18.3000 85.6000 TC 75 18.2640 85.6326 4 8 309
1972251N15097 1972 92 NI BB NOT_NAMED 1972-09-10 03:00:00 TS 18.5333 85.2816 main 81 30 P________PO___ IO091972 18.5499 85.2724 XX -5 18.5499 85.2724 TC 18.5000 85.3000 4 9 306
1972251N15097 1972 92 NI BB NOT_NAMED 1972-09-10 06:00:00 TS 18.7911 84.8893 main 30 0 O________OP___ jtwc_io IO091972 18.8000 84.9000 -1 18.8000 84.9000 TC 18.7733 84.8678 4 10 303
1972251N15097 1972 92 NI BB NOT_NAMED 1972-09-10 09:00:00 TS 19.0528 84.4378 main 0 0 P________PP___ IO091972 19.0501 84.4500 -1 19.0501 84.4500 TC 19.0582 84.4134 4 10 302
1972251N15097 1972 92 NI BB NOT_NAMED 1972-09-10 12:00:00 TS 19.3130 83.9924 main 0 0 O________OP___ jtwc_io IO091972 19.3000 84.0000 -1 19.3000 84.0000 TC 19.3390 83.9772 4 10 303
1972251N15097 1972 92 NI BB NOT_NAMED 1972-09-10 15:00:00 TS 19.5767 83.5984 main 0 0 P________PO___ IO091972 19.5650 83.5976 -1 19.5650 83.5976 TC 19.6000 83.6000 2 8 307
1972251N15097 1972 92 NI BB NOT_NAMED 1972-09-10 18:00:00 TS 19.7974 83.3194 main 0 0 O________OP___ jtwc_io IO091972 19.8000 83.3000 -1 19.8000 83.3000 TC 19.7923 83.3583 2 5 314
1972251N15097 1972 92 NI BB NOT_NAMED 1972-09-10 21:00:00 TS 19.9462 83.1866 main 0 0 P________PP___ IO091972 19.9348 83.1921 -1 19.9348 83.1921 TC 19.9689 83.1756 2 4 324
1972251N15097 1972 92 NI BB NOT_NAMED 1972-09-11 00:00:00 TS 20.1204 83.0684 main 0 0 O________OP___ jtwc_io IO091972 20.1000 83.1000 -1 20.1000 83.1000 TC 20.1611 83.0051 2 6 324
1972251N15097 1972 92 NI BB NOT_NAMED 1972-09-11 03:00:00 TS 20.4133 82.8300 main 0 0 P________PO___ IO091972 20.4200 82.8450 -1 20.4200 82.8450 TC 20.4000 82.8000 2 8 321
1972251N15097 1972 92 NI BB NOT_NAMED 1972-09-11 06:00:00 TS 20.7750 82.4965 main 0 0 O________OP___ jtwc_io IO091972 20.8000 82.5000 -1 20.8000 82.5000 TC 20.7249 82.4895 2 10 317
1972251N15097 1972 92 NI BB NOT_NAMED 1972-09-11 09:00:00 TS 21.1277 82.1126 main 0 0 P________PP___ IO091972 21.1426 82.1000 -1 21.1426 82.1000 TC 21.0978 82.1380 2 10 315
1972251N15097 1972 92 NI BB NOT_NAMED 1972-09-11 12:00:00 TS 21.4989 81.7225 main 0 0 O________OP___ jtwc_io IO091972 21.5000 81.7000 -1 21.5000 81.7000 TC 21.4968 81.7675 2 10 319
1972251N15097 1972 92 NI BB NOT_NAMED 1972-09-11 15:00:00 TS 21.8949 81.3948 main 0 0 P________PO___ IO091972 21.8923 81.3922 -1 21.8923 81.3922 TC 21.9000 81.4000 2 10 323
1972251N15097 1972 92 NI BB NOT_NAMED 1972-09-11 18:00:00 TS 22.3025 81.0759 main 0 0 O________OP___ jtwc_io IO091972 22.3000 81.1000 -1 22.3000 81.1000 TC 22.3076 81.0277 2 10 323
1972251N15097 1972 92 NI BB NOT_NAMED 1972-09-11 21:00:00 TS 22.7185 80.7179 main 0 0 P________PP___ IO091972 22.7226 80.7426 -1 22.7226 80.7426 TC 22.7103 80.6684 2 10 321
1972251N15097 1972 92 NI BB NOT_NAMED 1972-09-12 00:00:00 TS 23.0942 80.3832 main 0 0 O________OP___ jtwc_io IO091972 23.1000 80.4000 -1 23.1000 80.4000 TC 23.0827 80.3497 2 9 320
1972251N15097 1972 92 NI BB NOT_NAMED 1972-09-12 03:00:00 TS 23.3917 80.0983 main 0 0 P________PO___ IO091972 23.3875 80.0974 -1 23.3875 80.0974 TC 23.4000 80.1000 1 7 321
1972251N15097 1972 92 NI BB NOT_NAMED 1972-09-12 06:00:00 TS 23.6107 79.9200 main 0 0 O________OP___ jtwc_io IO091972 23.6000 79.9000 -1 23.6000 79.9000 TC 23.6320 79.9601 1 4 333
1972251N15097 1972 92 NI BB NOT_NAMED 1972-09-12 09:00:00 TS 23.7748 79.8810 main 0 0 P________PP___ IO091972 23.7574 79.8773 -1 23.7574 79.8773 TC 23.8094 79.8886 1 3 352
1972251N15097 1972 92 NI BB NOT_NAMED 1972-09-12 12:00:00 TS 23.9190 79.8826 main 0 0 O________OP___ jtwc_io IO091972 23.9000 79.9000 -1 23.9000 79.9000 TC 23.9571 79.8479 1 3 349
1972251N15097 1972 92 NI BB NOT_NAMED 1972-09-12 15:00:00 TS 24.1000 79.8150 main 0 0 P________PO___ IO091972 24.1000 79.8225 -1 24.1000 79.8225 TC 24.1000 79.8000 1 4 335
1972251N15097 1972 92 NI BB NOT_NAMED 1972-09-12 18:00:00 TS 24.2903 79.6938 main 0 0 O________OP___ jtwc_io IO091972 24.3000 79.7000 -1 24.3000 79.7000 TC 24.2710 79.6813 1 4 325
1972251N15097 1972 92 NI BB NOT_NAMED 1972-09-12 21:00:00 TS 24.4475 79.5500 main 0 0 P________PP___ IO091972 24.4500 79.5500 -1 24.4500 79.5500 TC 24.4426 79.5501 1 4 320
1972251N15097 1972 92 NI BB NOT_NAMED 1972-09-13 00:00:00 TS 24.6060 79.4063 main 0 0 O________OP___ jtwc_io IO091972 24.6000 79.4000 -1 24.6000 79.4000 TC 24.6179 79.4188 1 4 326
1972251N15097 1972 92 NI BB NOT_NAMED 1972-09-13 03:00:00 TS 24.7950 79.2900 main 0 0 P________PO___ IO091972 24.7925 79.2850 -1 24.7925 79.2850 TC 24.8000 79.3000 1 4 335
1972251N15097 1972 92 NI BB NOT_NAMED 1972-09-13 06:00:00 TS 24.9908 79.2048 main 0 0 O________OP___ jtwc_io IO091972 25.0000 79.2000 -1 25.0000 79.2000 TC 24.9724 79.2144 1 4 341
1972251N15097 1972 92 NI BB NOT_NAMED 1972-09-13 09:00:00 TS 25.1800 79.1473 main 0 0 P________PP___ IO091972 25.1925 79.1499 -1 25.1925 79.1499 TC 25.1549 79.1421 1 4 345
1972251N15097 1972 92 NI BB NOT_NAMED 1972-09-13 12:00:00 TS 25.3866 79.0912 main 0 0 O________OP___ jtwc_io IO091972 25.4000 79.1000 -1 25.4000 79.1000 TC 25.3599 79.0737 1 5 343
1972251N15097 1972 92 NI BB NOT_NAMED 1972-09-13 15:00:00 TS 25.6183 79.0050 main 0 0 P________PO___ IO091972 25.6275 79.0075 -1 25.6275 79.0075 TC 25.6000 79.0000 1 5 341
1972251N15097 1972 92 NI BB NOT_NAMED 1972-09-13 18:00:00 TS 25.8950 78.8984 main 0 0 O________OP___ jtwc_io IO091972 25.9000 78.9000 -1 25.9000 78.9000 TC 25.8851 78.8953 1 6 343
1972251N15097 1972 92 NI BB NOT_NAMED 1972-09-13 21:00:00 TS 26.2300 78.7951 main 0 0 P________PP___ IO091972 26.2425 78.8000 -1 26.2425 78.8000 TC 26.2051 78.7854 1 7 345
1972251N15097 1972 92 NI BB NOT_NAMED 1972-09-14 00:00:00 TS 26.5825 78.6943 main 0 0 O________OP___ jtwc_io IO091972 26.6000 78.7000 -1 26.6000 78.7000 TC 26.5476 78.6828 1 7 345
1972251N15097 1972 92 NI BB NOT_NAMED 1972-09-14 03:00:00 TS 26.9000 78.5900 main 0 0 P________PO___ IO091972 26.9000 78.5850 -1 26.9000 78.5850 TC 26.9000 78.6000 1 7 346
1972251N15097 1972 92 NI BB NOT_NAMED 1972-09-14 06:00:00 TS 27.2209 78.5185 main 0 0 O________OP___ jtwc_io IO091972 27.2000 78.5000 -1 27.2000 78.5000 TC 27.2521 78.5463 1 7 353
1972251N15097 1972 92 NI BB NOT_NAMED 1972-09-14 09:00:00 TS 27.5653 78.4958 main 0 0 P________PP___ IO091972 27.5375 78.4799 -1 27.5375 78.4799 TC 27.6024 78.5171 1 7 0
1972251N15097 1972 92 NI BB NOT_NAMED 1972-09-14 12:00:00 TS 27.9258 78.5022 main 0 0 O________OP___ jtwc_io IO091972 27.9000 78.5000 -1 27.9000 78.5000 TC 27.9515 78.5044 1 7 1
1972251N15097 1972 92 NI BB NOT_NAMED 1972-09-14 15:00:00 NR 28.3000 78.5000 main 0 __________O___ IO091972 -1 TC 28.3000 78.5000 1 8 0

About IBTrACS Database

This database is a web-friendly format of International Best Track Archive for Climate Stewardship (IBTrACS), a global best track data archive curated by NOAA dating back to 1842.

Updated: 2021-12-03